You are not logged in, Click here to log in
有明佐賀空港HSG / RJFS 日本 佐賀縣佐賀市
ICAO: RJFS Country: 日本 佐賀縣佐賀市
Latitude: 33.1497 Longitude: 130.302
Total Arrivals: 1 Total Departures: 1
Latest Arrival: ZVZ456 (RCTP-RJFS)Stone. Chang Latest Departure: IJ602 (RJFS-RJAA)Stone. Chang
Scenery: http://forums.x-plane.org/index.php?/files/file/37584-rjfs-saga-airport-japan/
METAR : RJFS 092100Z 35004KT 6000 NSC 03/02 Q1023

有明佐賀空港HSG

You are accessing this site from IP address 35.170.81.210. Virtual Airline. CMS by phpVMS.Website designed by Zumeweb and edited by Theo Bearman.
There is 0 User(s) Online: | and 7 Guest(s) Online.
All information on this site is for fight simulation purposes only. This site is for flight logging for pilots of Virtual Airline&模擬飛行論壇 FlySim only.